createdAt,value
2022-11-10T00:01:27.447Z,43.96
2022-11-10T00:06:50.888Z,43.20
2022-11-10T00:12:12.931Z,43.33
2022-11-10T00:17:36.606Z,43.71
2022-11-10T00:23:00.314Z,44.30
2022-11-10T00:28:22.555Z,44.46
2022-11-10T00:33:45.795Z,44.63
2022-11-10T00:39:09.804Z,45.67
2022-11-10T00:44:32.244Z,45.18
2022-11-10T00:49:54.253Z,44.30
2022-11-10T00:55:17.840Z,44.39
2022-11-10T01:00:39.637Z,44.64
2022-11-10T01:06:06.044Z,44.47
2022-11-10T01:11:29.653Z,44.60
2022-11-10T01:16:51.861Z,45.12
2022-11-10T01:22:13.757Z,45.56
2022-11-10T01:27:37.183Z,45.03
2022-11-10T01:32:59.086Z,44.90
2022-11-10T01:38:20.997Z,45.00
2022-11-10T01:43:44.433Z,45.24
2022-11-10T01:49:06.738Z,45.15
2022-11-10T01:54:30.684Z,45.75
2022-11-10T01:59:53.859Z,45.97
2022-11-10T02:05:15.778Z,46.22
2022-11-10T02:10:37.830Z,46.33
2022-11-10T02:16:01.667Z,46.40
2022-11-10T02:21:24.967Z,47.03
2022-11-10T02:26:49.996Z,46.62
2022-11-10T02:32:11.945Z,46.39
2022-11-10T02:37:35.075Z,46.49
2022-11-10T02:42:56.844Z,46.26
2022-11-10T02:48:20.110Z,46.61
2022-11-10T02:53:43.769Z,46.77
2022-11-10T02:59:05.858Z,46.73
2022-11-10T03:04:27.906Z,47.34
2022-11-10T03:09:51.445Z,47.66
2022-11-10T03:15:14.486Z,47.31
2022-11-10T03:20:36.628Z,47.78
2022-11-10T03:25:59.961Z,47.61
2022-11-10T03:31:21.959Z,47.86
2022-11-10T03:36:43.963Z,48.14
2022-11-10T03:42:07.257Z,47.56
2022-11-10T03:47:29.214Z,47.67
2022-11-10T03:52:51.110Z,47.68
2022-11-10T03:58:14.569Z,48.14
2022-11-10T04:03:36.239Z,48.63
2022-11-10T04:09:00.808Z,48.91
2022-11-10T04:14:41.516Z,48.21
2022-11-10T04:20:03.868Z,48.55
2022-11-10T04:25:26.229Z,49.18
2022-11-10T04:30:49.441Z,49.15
2022-11-10T04:36:13.140Z,49.96
2022-11-10T04:41:36.609Z,49.51
2022-11-10T04:46:59.896Z,49.60
2022-11-10T04:52:21.849Z,49.68
2022-11-10T04:57:43.986Z,49.86
2022-11-10T05:03:09.203Z,49.90
2022-11-10T05:08:31.065Z,49.22
2022-11-10T05:13:52.989Z,49.40
2022-11-10T05:19:16.324Z,49.99
2022-11-10T05:24:38.238Z,50.29
2022-11-10T05:30:00.207Z,50.23
2022-11-10T05:35:23.860Z,50.61
2022-11-10T05:40:46.116Z,50.12
2022-11-10T05:46:07.981Z,50.23
2022-11-10T05:51:31.361Z,50.63
2022-11-10T05:56:53.361Z,50.76
2022-11-10T06:02:15.335Z,49.79
2022-11-10T06:07:38.929Z,49.97
2022-11-10T06:13:01.412Z,50.18
2022-11-10T06:18:23.661Z,49.83
2022-11-10T06:23:46.858Z,50.10
2022-11-10T06:29:08.720Z,50.36
2022-11-10T06:34:30.613Z,50.24
2022-11-10T06:39:53.831Z,51.16
2022-11-10T06:45:15.908Z,50.93
2022-11-10T06:50:37.819Z,50.27
2022-11-10T06:56:01.069Z,49.56
2022-11-10T07:01:26.381Z,50.28
2022-11-10T07:06:48.875Z,50.35
2022-11-10T07:12:12.247Z,50.64
2022-11-10T07:17:34.052Z,50.98
2022-11-10T07:22:59.197Z,50.25
2022-11-10T07:28:27.310Z,50.21
2022-11-10T07:33:54.355Z,49.83
2022-11-10T07:39:16.719Z,49.84
2022-11-10T07:44:40.065Z,49.83
2022-11-10T07:50:01.952Z,49.89
2022-11-10T07:55:23.769Z,49.06
2022-11-10T08:00:47.987Z,49.23
2022-11-10T08:06:10.269Z,48.67
2022-11-10T08:11:32.172Z,49.03
2022-11-10T08:16:55.743Z,49.66
2022-11-10T08:22:17.717Z,48.14
2022-11-10T08:27:39.699Z,47.41
2022-11-10T08:33:04.870Z,47.42
2022-11-10T08:38:26.751Z,47.55
2022-11-10T08:43:48.815Z,47.93
2022-11-10T08:49:12.433Z,46.91
2022-11-10T08:54:34.518Z,46.62
2022-11-10T08:59:56.545Z,47.30
2022-11-10T09:05:20.068Z,46.36
2022-11-10T09:10:43.295Z,46.31
2022-11-10T09:16:06.455Z,45.62
2022-11-10T09:21:29.805Z,45.16
2022-11-10T09:26:52.482Z,44.98
2022-11-10T09:32:14.591Z,44.86
2022-11-10T09:37:41.099Z,44.55
2022-11-10T09:43:04.478Z,44.67
2022-11-10T09:48:28.600Z,44.94
2022-11-10T09:53:57.220Z,43.42
2022-11-10T09:59:25.900Z,45.04
2022-11-10T10:05:03.150Z,44.23
2022-11-10T10:10:34.081Z,43.17
2022-11-10T10:16:10.329Z,43.08
2022-11-10T10:21:41.942Z,43.82
2022-11-10T10:27:07.472Z,43.62
2022-11-10T10:32:29.885Z,42.46
2022-11-10T10:37:54.210Z,41.73
2022-11-10T10:43:18.099Z,41.31
2022-11-10T10:48:40.280Z,41.40
2022-11-10T10:54:02.137Z,40.99
2022-11-10T10:59:25.491Z,40.92
2022-11-10T11:04:47.367Z,40.43
2022-11-10T11:10:20.482Z,40.24
2022-11-10T11:15:43.958Z,39.94
2022-11-10T11:21:10.622Z,39.94
2022-11-10T11:26:41.089Z,40.41
2022-11-10T11:32:16.459Z,39.69
2022-11-10T11:37:42.815Z,39.78
2022-11-10T11:43:11.208Z,38.33
2022-11-10T11:48:53.039Z,38.01
2022-11-10T11:54:34.157Z,36.68
2022-11-10T12:00:03.468Z,37.24
2022-11-10T12:05:34.204Z,37.82
2022-11-10T12:11:05.488Z,38.52
2022-11-10T12:16:30.395Z,37.92
2022-11-10T12:21:59.040Z,37.73
2022-11-10T12:27:26.430Z,37.44
2022-11-10T12:32:51.532Z,37.73
2022-11-10T12:38:19.148Z,37.46
2022-11-10T12:43:47.134Z,37.00
2022-11-10T12:49:15.413Z,36.59
2022-11-10T12:54:39.902Z,36.26
2022-11-10T13:00:05.371Z,36.46
2022-11-10T13:05:37.767Z,37.83
2022-11-10T13:11:05.626Z,37.10
2022-11-10T13:16:49.408Z,37.03
2022-11-10T13:22:12.701Z,37.36
2022-11-10T13:27:54.929Z,37.22
2022-11-10T13:33:33.664Z,38.32
2022-11-10T13:38:56.578Z,37.70
2022-11-10T13:44:25.329Z,38.14
2022-11-10T13:49:56.763Z,37.19
2022-11-10T13:55:25.616Z,37.43
2022-11-10T14:00:51.964Z,37.79
2022-11-10T14:06:17.802Z,37.92
2022-11-10T14:11:45.710Z,38.06
2022-11-10T14:17:18.389Z,37.53
2022-11-10T14:22:43.334Z,38.22
2022-11-10T14:28:25.993Z,38.47
2022-11-10T14:33:56.586Z,38.74
2022-11-10T14:39:18.852Z,39.71
2022-11-10T14:44:41.305Z,39.33
2022-11-10T14:50:18.981Z,39.36
2022-11-10T14:55:44.684Z,40.55
2022-11-10T15:01:07.986Z,39.35
2022-11-10T15:06:32.267Z,39.31
2022-11-10T15:11:55.825Z,39.72
2022-11-10T15:17:22.278Z,39.70
2022-11-10T15:22:46.132Z,40.17
2022-11-10T15:28:23.153Z,40.53
2022-11-10T15:33:48.197Z,40.71
2022-11-10T15:39:20.268Z,40.65
2022-11-10T15:44:46.239Z,40.30
2022-11-10T15:50:13.092Z,41.00
2022-11-10T15:55:36.732Z,40.91
2022-11-10T16:00:58.764Z,41.27
2022-11-10T16:06:21.241Z,41.76
2022-11-10T16:11:45.400Z,42.13
2022-11-10T16:17:10.145Z,42.49
2022-11-10T16:22:32.622Z,42.22
2022-11-10T16:27:56.085Z,42.54
2022-11-10T16:33:19.320Z,42.77
2022-11-10T16:38:41.402Z,42.51
2022-11-10T16:44:06.456Z,42.77
2022-11-10T16:49:33.368Z,42.94
2022-11-10T16:54:55.820Z,42.76
2022-11-10T17:00:20.397Z,43.31
2022-11-10T17:05:42.617Z,42.94
2022-11-10T17:11:04.873Z,43.36
2022-11-10T17:16:30.211Z,43.14
2022-11-10T17:21:53.794Z,42.75
2022-11-10T17:27:16.792Z,43.45
2022-11-10T17:33:03.745Z,42.78
2022-11-10T17:38:23.856Z,44.11
2022-11-10T17:43:46.249Z,43.49
2022-11-10T17:49:09.806Z,43.59
2022-11-10T17:54:32.086Z,44.08
2022-11-10T18:04:36.197Z,44.55
2022-11-10T18:09:58.490Z,44.07
2022-11-10T18:15:20.617Z,44.21
2022-11-10T18:20:44.617Z,43.80
2022-11-10T18:26:08.634Z,44.07
2022-11-10T18:31:30.809Z,44.08
2022-11-10T18:36:54.212Z,43.76
2022-11-10T18:42:16.477Z,43.36
2022-11-10T18:47:38.596Z,43.27
2022-11-10T18:53:04.017Z,43.63
2022-11-10T18:58:25.868Z,43.70
2022-11-10T19:03:47.698Z,44.22
2022-11-10T19:09:12.482Z,43.83
2022-11-10T19:14:34.829Z,44.48
2022-11-10T19:19:57.048Z,43.57
2022-11-10T19:25:20.893Z,44.04
2022-11-10T19:30:43.215Z,44.71
2022-11-10T19:36:06.427Z,45.48
2022-11-10T19:41:31.307Z,45.03
2022-11-10T19:46:53.546Z,45.14
2022-11-10T19:52:15.590Z,44.98
2022-11-10T19:57:39.269Z,45.03
2022-11-10T20:03:01.483Z,45.19
2022-11-10T20:08:23.416Z,45.68
2022-11-10T20:13:48.833Z,44.88
2022-11-10T20:19:14.390Z,45.76
2022-11-10T20:24:36.791Z,45.75
2022-11-10T20:30:00.468Z,45.59
2022-11-10T20:35:22.569Z,45.40
2022-11-10T20:40:45.306Z,45.44
2022-11-10T20:46:16.150Z,45.58
2022-11-10T20:51:45.033Z,45.45
2022-11-10T20:57:07.249Z,45.02
2022-11-10T21:02:30.728Z,45.07
2022-11-10T21:07:53.142Z,44.35
2022-11-10T21:13:15.374Z,44.79
2022-11-10T21:18:39.082Z,44.78
2022-11-10T21:24:01.322Z,45.43
2022-11-10T21:29:24.666Z,44.70
2022-11-10T21:34:51.842Z,44.78
2022-11-10T21:40:21.035Z,44.93
2022-11-10T21:45:45.047Z,45.09
2022-11-10T21:51:12.519Z,45.36
2022-11-10T21:56:34.785Z,45.75
2022-11-10T22:01:56.996Z,45.17
2022-11-10T22:07:26.621Z,44.90
2022-11-10T22:13:06.266Z,45.09
2022-11-10T22:18:41.320Z,44.30
2022-11-10T22:24:22.845Z,44.39
2022-11-10T22:29:45.265Z,44.65
2022-11-10T22:35:08.211Z,44.80
2022-11-10T22:40:49.359Z,44.14
2022-11-10T22:46:11.591Z,44.53
2022-11-10T22:51:33.753Z,44.41
2022-11-10T22:56:57.636Z,43.58
2022-11-10T23:02:20.089Z,44.28
2022-11-10T23:07:42.420Z,45.24
2022-11-10T23:13:05.947Z,45.14
2022-11-10T23:18:28.215Z,44.45
2022-11-10T23:23:50.771Z,44.53
2022-11-10T23:29:14.534Z,44.14
2022-11-10T23:34:36.929Z,44.30
2022-11-10T23:39:58.785Z,44.33
2022-11-10T23:45:22.264Z,44.29
2022-11-10T23:50:44.774Z,44.16
2022-11-10T23:56:08.717Z,44.66
